createdAt,value
2022-11-05T00:02:37.237Z,5.90
2022-11-05T00:05:22.960Z,5.90
2022-11-05T00:08:11.038Z,5.90
2022-11-05T00:10:39.010Z,5.90
2022-11-05T00:13:27.353Z,5.90
2022-11-05T00:16:13.208Z,5.90
2022-11-05T00:18:40.141Z,5.90
2022-11-05T00:21:26.884Z,5.80
2022-11-05T00:24:12.550Z,5.80
2022-11-05T00:26:39.325Z,5.90
2022-11-05T00:29:06.200Z,5.90
2022-11-05T00:31:33.022Z,5.90
2022-11-05T00:33:59.836Z,5.90
2022-11-05T00:36:26.630Z,5.90
2022-11-05T00:38:53.379Z,5.90
2022-11-05T00:41:20.117Z,5.90
2022-11-05T00:44:05.568Z,5.90
2022-11-05T00:46:32.340Z,5.90
2022-11-05T00:49:17.582Z,6.00
2022-11-05T00:51:44.350Z,6.00
2022-11-05T00:54:11.101Z,6.00
2022-11-05T00:56:37.879Z,6.00
2022-11-05T00:59:04.734Z,6.00
2022-11-05T01:01:31.583Z,6.00
2022-11-05T01:03:58.487Z,6.00
2022-11-05T01:06:25.292Z,6.00
2022-11-05T01:08:52.072Z,5.90
2022-11-05T01:11:36.900Z,6.00
2022-11-05T01:14:06.592Z,5.90
2022-11-05T01:16:33.841Z,5.80
2022-11-05T01:19:02.046Z,5.80
2022-11-05T01:21:28.852Z,5.80
2022-11-05T01:23:55.747Z,5.80
2022-11-05T01:26:22.866Z,5.70
2022-11-05T01:28:57.945Z,5.80
2022-11-05T01:31:25.040Z,5.80
2022-11-05T01:33:51.835Z,5.80
2022-11-05T01:36:18.851Z,5.70
2022-11-05T01:38:45.685Z,5.70
2022-11-05T01:41:12.509Z,5.70
2022-11-05T01:43:57.079Z,5.70
2022-11-05T01:46:33.634Z,5.70
2022-11-05T01:49:20.718Z,5.70
2022-11-05T01:51:48.802Z,5.70
2022-11-05T01:54:20.863Z,5.60
2022-11-05T01:56:53.629Z,5.60
2022-11-05T01:59:43.951Z,5.70
2022-11-05T02:02:13.753Z,5.60
2022-11-05T02:04:46.438Z,5.60
2022-11-05T02:07:13.922Z,5.60
2022-11-05T02:09:59.178Z,5.60
2022-11-05T02:12:26.654Z,5.70
2022-11-05T02:14:53.500Z,5.60
2022-11-05T02:17:46.958Z,5.60
2022-11-05T02:20:58.653Z,5.60
2022-11-05T02:23:47.414Z,5.70
2022-11-05T02:26:47.337Z,5.60
2022-11-05T02:29:32.803Z,5.60
2022-11-05T02:32:22.367Z,5.70
2022-11-05T02:34:56.744Z,5.60
2022-11-05T02:37:44.443Z,5.70
2022-11-05T02:40:29.053Z,5.70
2022-11-05T02:42:55.770Z,5.70
2022-11-05T02:45:38.034Z,5.70
2022-11-05T02:48:33.933Z,5.70
2022-11-05T02:51:25.123Z,5.70
2022-11-05T02:54:39.439Z,5.70
2022-11-05T02:57:06.978Z,5.70
2022-11-05T02:59:33.962Z,5.80
2022-11-05T03:02:03.504Z,5.80
2022-11-05T03:04:32.170Z,5.80
2022-11-05T03:07:17.513Z,5.80
2022-11-05T03:09:50.489Z,5.90
2022-11-05T03:12:21.471Z,5.80
2022-11-05T03:15:16.673Z,5.90
2022-11-05T03:18:05.034Z,5.90
2022-11-05T03:20:49.800Z,5.90
2022-11-05T03:23:38.292Z,5.90
2022-11-05T03:26:08.528Z,5.90
2022-11-05T03:28:39.077Z,5.90
2022-11-05T03:31:07.979Z,5.90
2022-11-05T03:33:37.771Z,5.90
2022-11-05T03:36:11.555Z,5.90
2022-11-05T03:38:41.673Z,6.00
2022-11-05T03:41:12.340Z,6.00
2022-11-05T03:43:45.086Z,6.00
2022-11-05T03:46:35.012Z,6.00
2022-11-05T03:49:05.863Z,6.10
2022-11-05T03:51:46.106Z,6.10
2022-11-05T03:54:13.651Z,6.10
2022-11-05T03:57:02.904Z,6.10
2022-11-05T03:59:31.908Z,6.10
2022-11-05T04:01:58.751Z,6.10
2022-11-05T04:04:25.807Z,6.10
2022-11-05T04:07:10.919Z,6.10
2022-11-05T04:09:56.263Z,6.10
2022-11-05T04:12:41.699Z,6.10
2022-11-05T04:15:09.058Z,6.10
2022-11-05T04:17:38.866Z,6.20
2022-11-05T04:20:24.344Z,6.20
2022-11-05T04:23:17.454Z,6.10
2022-11-05T04:25:44.773Z,6.20
2022-11-05T04:28:11.985Z,6.10
2022-11-05T04:30:39.328Z,6.20
2022-11-05T04:33:13.709Z,6.10
2022-11-05T04:35:48.007Z,6.10
2022-11-05T04:38:19.808Z,6.10
2022-11-05T04:40:48.168Z,6.10
2022-11-05T04:43:17.981Z,6.10
2022-11-05T04:45:45.719Z,6.10
2022-11-05T04:48:12.862Z,6.10
2022-11-05T04:50:42.674Z,6.10
2022-11-05T04:53:09.760Z,6.10
2022-11-05T04:55:36.764Z,6.10
2022-11-05T04:58:03.723Z,6.10
2022-11-05T05:00:30.636Z,6.10
2022-11-05T05:02:57.524Z,6.00
2022-11-05T05:05:24.289Z,6.00
2022-11-05T05:07:51.127Z,6.00
2022-11-05T05:10:18.105Z,6.00
2022-11-05T05:12:46.052Z,5.90
2022-11-05T05:15:15.004Z,5.90
2022-11-05T05:17:41.835Z,5.90
2022-11-05T05:20:27.315Z,5.80
2022-11-05T05:22:55.185Z,6.10
2022-11-05T05:25:22.616Z,6.20
2022-11-05T05:27:49.393Z,6.30
2022-11-05T05:30:16.320Z,6.10
2022-11-05T05:32:43.376Z,6.00
2022-11-05T05:35:10.586Z,6.30
2022-11-05T05:37:37.467Z,6.40
2022-11-05T05:40:04.564Z,6.30
2022-11-05T05:42:31.371Z,6.10
2022-11-05T05:44:58.256Z,6.10
2022-11-05T05:47:25.152Z,6.00
2022-11-05T05:49:52.103Z,5.90
2022-11-05T05:52:19.361Z,5.90
2022-11-05T05:54:46.188Z,5.90
2022-11-05T05:57:13.001Z,5.80
2022-11-05T05:59:39.807Z,5.80
2022-11-05T06:02:06.691Z,5.80
2022-11-05T06:04:33.706Z,5.80
2022-11-05T06:07:00.533Z,5.90
2022-11-05T06:09:27.280Z,6.00
2022-11-05T06:11:54.224Z,6.10
2022-11-05T06:14:21.027Z,6.00
2022-11-05T06:16:47.929Z,6.00
2022-11-05T06:19:14.711Z,5.90
2022-11-05T06:21:41.549Z,5.90
2022-11-05T06:24:08.930Z,5.90
2022-11-05T06:26:35.845Z,5.80
2022-11-05T06:29:02.644Z,5.80
2022-11-05T06:31:29.441Z,5.80
2022-11-05T06:33:56.282Z,5.90
2022-11-05T06:36:23.064Z,5.90
2022-11-05T06:38:49.975Z,6.00
2022-11-05T06:41:16.742Z,6.00
2022-11-05T06:43:44.188Z,6.00
2022-11-05T06:46:11.813Z,6.10
2022-11-05T06:48:39.188Z,6.10
2022-11-05T06:51:08.020Z,6.10
2022-11-05T06:53:35.644Z,6.20
2022-11-05T06:56:06.674Z,6.20
2022-11-05T06:58:34.077Z,6.30
2022-11-05T07:01:03.006Z,6.40
2022-11-05T07:03:29.916Z,6.50
2022-11-05T07:05:58.076Z,6.60
2022-11-05T07:08:24.984Z,6.70
2022-11-05T07:10:51.822Z,6.80
2022-11-05T07:13:18.663Z,6.80
2022-11-05T07:15:45.532Z,6.80
2022-11-05T07:18:12.350Z,6.70
2022-11-05T07:20:39.201Z,6.60
2022-11-05T07:23:13.258Z,6.70
2022-11-05T07:25:41.861Z,6.70
2022-11-05T07:28:10.371Z,6.90
2022-11-05T07:30:37.320Z,6.90
2022-11-05T07:33:07.523Z,7.00
2022-11-05T07:35:34.372Z,7.30
2022-11-05T07:38:01.261Z,7.50
2022-11-05T07:40:29.500Z,7.60
2022-11-05T07:42:58.762Z,7.70
2022-11-05T07:45:27.067Z,7.60
2022-11-05T07:47:59.099Z,7.60
2022-11-05T07:50:28.250Z,7.70
2022-11-05T07:53:03.950Z,7.60
2022-11-05T07:55:30.890Z,7.60
2022-11-05T07:57:57.787Z,7.60
2022-11-05T08:00:25.761Z,7.70
2022-11-05T08:03:07.898Z,7.80
2022-11-05T08:05:37.518Z,7.90
2022-11-05T08:08:08.072Z,7.80
2022-11-05T08:10:35.504Z,7.90
2022-11-05T08:13:02.496Z,8.00
2022-11-05T08:15:29.372Z,7.90
2022-11-05T08:18:07.306Z,7.90
2022-11-05T08:20:35.007Z,7.90
2022-11-05T08:23:01.846Z,8.00
2022-11-05T08:25:29.240Z,7.90
2022-11-05T08:27:58.026Z,7.90
2022-11-05T08:30:25.380Z,8.00
2022-11-05T08:32:57.899Z,8.00
2022-11-05T08:35:26.335Z,8.10
2022-11-05T08:38:02.596Z,8.10
2022-11-05T08:40:31.843Z,8.10
2022-11-05T08:42:59.773Z,8.30
2022-11-05T08:45:27.395Z,8.40
2022-11-05T08:48:01.602Z,8.50
2022-11-05T08:50:29.063Z,8.60
2022-11-05T08:52:56.121Z,8.70
2022-11-05T08:55:23.068Z,8.80
2022-11-05T08:57:58.860Z,9.00
2022-11-05T09:00:27.648Z,9.10
2022-11-05T09:02:54.673Z,9.00
2022-11-05T09:05:21.916Z,8.90
2022-11-05T09:07:49.438Z,9.00
2022-11-05T09:10:16.298Z,9.20
2022-11-05T09:12:43.609Z,9.10
2022-11-05T09:15:10.763Z,9.20
2022-11-05T09:17:37.636Z,9.30
2022-11-05T09:20:07.050Z,9.60
2022-11-05T09:22:35.981Z,9.90
2022-11-05T09:25:06.987Z,9.80
2022-11-05T09:27:33.805Z,10.10
2022-11-05T09:30:00.817Z,10.60
2022-11-05T09:32:27.806Z,10.60
2022-11-05T09:34:54.817Z,10.70
2022-11-05T09:37:22.073Z,10.60
2022-11-05T09:39:48.887Z,10.40
2022-11-05T09:42:17.990Z,10.50
2022-11-05T09:44:55.089Z,10.60
2022-11-05T09:47:33.219Z,10.60
2022-11-05T09:50:03.660Z,10.60
2022-11-05T09:52:33.779Z,10.40
2022-11-05T09:55:04.150Z,10.50
2022-11-05T09:57:53.408Z,10.30
2022-11-05T10:00:20.831Z,10.00
2022-11-05T10:03:12.253Z,9.90
2022-11-05T10:05:40.641Z,9.80
2022-11-05T10:08:16.912Z,9.80
2022-11-05T10:10:51.408Z,9.70
2022-11-05T10:13:24.023Z,9.50
2022-11-05T10:16:23.482Z,9.40
2022-11-05T10:19:14.991Z,9.50
2022-11-05T10:22:05.655Z,9.60
2022-11-05T10:24:30.160Z,9.60
2022-11-05T10:26:57.684Z,9.50
2022-11-05T10:29:29.626Z,9.50
2022-11-05T10:32:03.244Z,9.50
2022-11-05T10:34:34.396Z,9.70
2022-11-05T10:37:01.424Z,9.60
2022-11-05T10:39:35.585Z,9.50
2022-11-05T10:42:02.338Z,9.60
2022-11-05T10:44:33.240Z,9.70
2022-11-05T10:47:26.472Z,9.60
2022-11-05T10:49:59.605Z,9.60
2022-11-05T10:52:39.411Z,9.80
2022-11-05T10:55:29.661Z,9.70
2022-11-05T10:58:11.044Z,9.80
2022-11-05T11:00:37.979Z,10.00
2022-11-05T11:03:26.026Z,10.20
2022-11-05T11:06:02.532Z,10.50
2022-11-05T11:08:31.002Z,10.60
2022-11-05T11:11:02.129Z,10.40
2022-11-05T11:13:58.260Z,10.30
2022-11-05T11:16:27.231Z,10.60
2022-11-05T11:19:00.889Z,10.70
2022-11-05T11:21:29.662Z,11.00
2022-11-05T11:23:58.825Z,10.90
2022-11-05T11:26:37.323Z,10.80
2022-11-05T11:29:24.401Z,11.10
2022-11-05T11:31:55.289Z,11.30
2022-11-05T11:34:39.191Z,11.30
2022-11-05T11:37:12.862Z,11.20
2022-11-05T11:39:46.807Z,11.00
2022-11-05T11:42:29.606Z,11.20
2022-11-05T11:44:59.177Z,11.00
2022-11-05T11:47:28.917Z,10.70
2022-11-05T11:49:58.459Z,10.50
2022-11-05T11:52:31.463Z,10.50
2022-11-05T11:55:22.198Z,10.40
2022-11-05T11:58:04.764Z,10.60
2022-11-05T12:00:39.404Z,10.70
2022-11-05T12:03:12.478Z,10.40
2022-11-05T12:05:42.507Z,10.50
2022-11-05T12:08:18.671Z,10.70
2022-11-05T12:11:04.727Z,10.80
2022-11-05T12:13:34.524Z,11.00
2022-11-05T12:16:15.468Z,11.10
2022-11-05T12:19:13.740Z,11.30
2022-11-05T12:21:55.535Z,11.80
2022-11-05T12:24:53.483Z,11.90
2022-11-05T12:27:20.221Z,11.80
2022-11-05T12:29:50.942Z,11.80
2022-11-05T12:32:47.717Z,11.90
2022-11-05T12:35:32.610Z,11.90
2022-11-05T12:38:13.495Z,11.80
2022-11-05T12:41:07.577Z,12.10
2022-11-05T12:43:48.263Z,11.80
2022-11-05T12:46:38.453Z,11.90
2022-11-05T12:49:05.156Z,12.00
2022-11-05T12:51:44.697Z,12.10
2022-11-05T12:54:11.425Z,12.00
2022-11-05T12:57:05.453Z,11.70
2022-11-05T12:59:41.949Z,12.10
2022-11-05T13:02:11.643Z,12.10
2022-11-05T13:04:50.984Z,12.00
2022-11-05T13:07:23.819Z,11.50
2022-11-05T13:10:16.373Z,11.30
2022-11-05T13:12:45.231Z,11.20
2022-11-05T13:15:33.251Z,11.20
2022-11-05T13:18:05.676Z,11.10
2022-11-05T13:20:39.799Z,11.10
2022-11-05T13:23:20.074Z,11.00
2022-11-05T13:25:53.111Z,11.10
2022-11-05T13:28:50.704Z,11.00
2022-11-05T13:31:25.631Z,10.90
2022-11-05T13:33:54.376Z,11.00
2022-11-05T13:36:54.545Z,11.30
2022-11-05T13:39:28.983Z,11.30
2022-11-05T13:42:33.161Z,11.30
2022-11-05T13:45:08.024Z,11.30
2022-11-05T13:48:12.870Z,10.90
2022-11-05T13:50:57.945Z,10.90
2022-11-05T13:53:45.645Z,10.90
2022-11-05T13:56:33.772Z,10.80
2022-11-05T13:59:31.012Z,10.90
2022-11-05T14:02:11.681Z,10.80
2022-11-05T14:04:54.418Z,10.80
2022-11-05T14:07:33.221Z,10.70
2022-11-05T14:10:18.160Z,10.40
2022-11-05T14:12:50.243Z,10.40
2022-11-05T14:15:25.662Z,10.20
2022-11-05T14:18:18.069Z,10.20
2022-11-05T14:21:00.086Z,10.30
2022-11-05T14:23:37.081Z,10.40
2022-11-05T14:26:33.310Z,10.40
2022-11-05T14:29:05.954Z,10.20
2022-11-05T14:34:48.735Z,10.10
2022-11-05T14:37:37.089Z,10.10
2022-11-05T14:40:32.936Z,10.10
2022-11-05T14:43:05.430Z,10.10
2022-11-05T14:45:39.278Z,10.00
2022-11-05T14:48:27.906Z,10.10
2022-11-05T14:50:55.384Z,10.00
2022-11-05T14:53:35.733Z,10.00
2022-11-05T14:56:14.023Z,9.90
2022-11-05T14:58:42.855Z,9.80
2022-11-05T15:01:32.368Z,9.80
2022-11-05T15:04:28.346Z,9.70
2022-11-05T15:07:04.421Z,9.60
2022-11-05T15:09:40.637Z,9.60
2022-11-05T15:12:32.869Z,9.50
2022-11-05T15:15:01.271Z,9.50
2022-11-05T15:17:30.248Z,9.50
2022-11-05T15:20:22.174Z,9.40
2022-11-05T15:22:55.732Z,9.40
2022-11-05T15:25:34.492Z,9.30
2022-11-05T15:28:06.456Z,9.30
2022-11-05T15:30:33.603Z,9.20
2022-11-05T15:33:18.381Z,9.20
2022-11-05T15:35:45.314Z,9.20
2022-11-05T15:38:36.751Z,9.20
2022-11-05T15:41:12.757Z,8.90
2022-11-05T15:43:49.708Z,9.10
2022-11-05T15:46:24.610Z,9.10
2022-11-05T15:48:54.446Z,9.00
2022-11-05T15:51:23.645Z,9.00
2022-11-05T15:56:45.390Z,8.90
2022-11-05T15:59:20.423Z,8.90
2022-11-05T16:02:31.735Z,8.90
2022-11-05T16:05:04.122Z,8.80
2022-11-05T16:07:31.036Z,8.80
2022-11-05T16:10:00.713Z,8.80
2022-11-05T16:12:32.153Z,8.80
2022-11-05T16:15:09.363Z,8.80
2022-11-05T16:18:01.690Z,8.70
2022-11-05T16:20:38.460Z,8.70
2022-11-05T16:23:22.615Z,8.70
2022-11-05T16:25:50.377Z,8.70
2022-11-05T16:28:24.522Z,8.70
2022-11-05T16:31:04.552Z,8.70
2022-11-05T16:33:48.304Z,8.70
2022-11-05T16:36:15.153Z,8.70
2022-11-05T16:38:41.959Z,8.60
2022-11-05T16:41:20.808Z,8.50
2022-11-05T16:43:57.503Z,8.50
2022-11-05T16:46:28.900Z,8.50
2022-11-05T16:48:56.639Z,8.50
2022-11-05T16:51:27.377Z,8.50
2022-11-05T16:53:54.407Z,8.50
2022-11-05T16:56:22.877Z,8.50
2022-11-05T16:58:50.007Z,8.50
2022-11-05T17:01:19.782Z,8.50
2022-11-05T17:03:47.857Z,8.50
2022-11-05T17:06:16.002Z,8.50
2022-11-05T17:08:44.505Z,8.60
2022-11-05T17:11:17.704Z,8.50
2022-11-05T17:13:45.152Z,8.60
2022-11-05T17:16:14.462Z,8.60
2022-11-05T17:18:42.253Z,8.60
2022-11-05T17:21:10.551Z,8.60
2022-11-05T17:23:37.480Z,8.60
2022-11-05T17:26:10.564Z,8.60
2022-11-05T17:28:38.401Z,8.60
2022-11-05T17:31:07.440Z,8.60
2022-11-05T17:33:34.804Z,8.50
2022-11-05T17:36:10.788Z,8.50
2022-11-05T17:38:37.931Z,8.50
2022-11-05T17:41:16.065Z,8.50
2022-11-05T17:43:42.889Z,8.40
2022-11-05T17:46:11.905Z,8.30
2022-11-05T17:48:38.975Z,8.30
2022-11-05T17:51:09.597Z,8.20
2022-11-05T17:53:36.564Z,8.20
2022-11-05T17:56:28.902Z,8.20
2022-11-05T17:59:01.048Z,8.10
2022-11-05T18:01:33.153Z,8.10
2022-11-05T18:04:05.375Z,8.10
2022-11-05T18:06:36.463Z,8.10
2022-11-05T18:09:04.663Z,8.00
2022-11-05T18:11:32.202Z,8.10
2022-11-05T18:13:59.143Z,8.10
2022-11-05T18:16:26.011Z,8.10
2022-11-05T18:18:52.921Z,8.10
2022-11-05T18:21:19.733Z,8.10
2022-11-05T18:23:46.535Z,8.10
2022-11-05T18:26:16.166Z,8.10
2022-11-05T18:28:43.927Z,8.20
2022-11-05T18:31:18.296Z,8.20
2022-11-05T18:33:45.404Z,8.10
2022-11-05T18:36:24.459Z,8.10
2022-11-05T18:38:51.493Z,8.10
2022-11-05T18:41:20.075Z,8.10
2022-11-05T18:43:47.544Z,8.10
2022-11-05T18:46:35.966Z,8.10
2022-11-05T18:49:01.987Z,8.10
2022-11-05T18:51:29.042Z,8.10
2022-11-05T18:53:56.139Z,8.10
2022-11-05T18:56:23.332Z,8.10
2022-11-05T18:59:03.302Z,8.10
2022-11-05T19:01:39.572Z,8.10
2022-11-05T19:04:06.517Z,8.10
2022-11-05T19:06:34.394Z,8.00
2022-11-05T19:09:01.473Z,8.00
2022-11-05T19:11:28.459Z,8.00
2022-11-05T19:13:55.249Z,8.00
2022-11-05T19:16:27.979Z,8.00
2022-11-05T19:18:58.013Z,7.90
2022-11-05T19:21:26.130Z,7.90
2022-11-05T19:23:53.885Z,7.90
2022-11-05T19:26:28.429Z,7.90
2022-11-05T19:28:57.834Z,7.90
2022-11-05T19:31:25.385Z,7.90
2022-11-05T19:33:53.742Z,7.90
2022-11-05T19:36:22.352Z,7.90
2022-11-05T19:38:53.211Z,7.90
2022-11-05T19:41:21.543Z,7.80
2022-11-05T19:43:48.426Z,7.80
2022-11-05T19:46:18.497Z,7.70
2022-11-05T19:48:46.323Z,7.70
2022-11-05T19:51:25.268Z,7.60
2022-11-05T19:53:52.920Z,7.60
2022-11-05T19:56:25.671Z,7.50
2022-11-05T19:58:53.473Z,7.50
2022-11-05T20:01:22.247Z,7.50
2022-11-05T20:03:49.388Z,7.60
2022-11-05T20:06:22.121Z,7.60
2022-11-05T20:11:40.059Z,7.90
2022-11-05T20:14:09.419Z,8.00
2022-11-05T20:16:40.274Z,8.00
2022-11-05T20:19:12.656Z,8.00
2022-11-05T20:21:39.908Z,8.00
2022-11-05T20:24:07.867Z,7.90
2022-11-05T20:26:34.807Z,7.90
2022-11-05T20:29:01.679Z,7.90
2022-11-05T20:31:28.594Z,7.90
2022-11-05T20:33:55.463Z,7.90
2022-11-05T20:36:24.016Z,7.90
2022-11-05T20:38:56.661Z,7.80
2022-11-05T20:41:24.980Z,7.80
2022-11-05T20:43:52.224Z,7.80
2022-11-05T20:46:20.441Z,7.80
2022-11-05T20:48:47.600Z,7.80
2022-11-05T20:51:17.061Z,7.70
2022-11-05T20:53:44.212Z,7.70
2022-11-05T20:56:26.510Z,7.70
2022-11-05T20:58:53.479Z,7.70
2022-11-05T21:01:20.812Z,7.80
2022-11-05T21:03:48.316Z,7.70
2022-11-05T21:06:15.886Z,7.70
2022-11-05T21:08:43.366Z,7.60
2022-11-05T21:11:10.901Z,7.60
2022-11-05T21:13:38.588Z,7.60
2022-11-05T21:16:07.399Z,7.50
2022-11-05T21:18:36.498Z,7.40
2022-11-05T21:21:08.194Z,7.40
2022-11-05T21:23:35.234Z,7.20
2022-11-05T21:26:10.879Z,7.10
2022-11-05T21:28:39.106Z,7.20
2022-11-05T21:31:07.014Z,7.30
2022-11-05T21:33:34.026Z,7.20
2022-11-05T21:36:08.253Z,7.10
2022-11-05T21:38:35.207Z,7.10
2022-11-05T21:41:03.065Z,7.00
2022-11-05T21:43:30.064Z,7.10
2022-11-05T21:46:01.875Z,7.10
2022-11-05T21:48:29.075Z,7.10
2022-11-05T21:51:14.841Z,7.10
2022-11-05T21:54:14.169Z,7.10
2022-11-05T21:57:00.051Z,7.10
2022-11-05T21:59:45.532Z,7.10
2022-11-05T22:02:14.556Z,6.90
2022-11-05T22:04:46.608Z,6.90
2022-11-05T22:07:15.911Z,6.80
2022-11-05T22:09:42.760Z,6.80
2022-11-05T22:12:10.345Z,6.90
2022-11-05T22:14:37.853Z,6.90
2022-11-05T22:17:05.046Z,6.80
2022-11-05T22:19:32.026Z,6.60
2022-11-05T22:21:59.285Z,6.50
2022-11-05T22:24:31.839Z,6.40
2022-11-05T22:27:08.385Z,6.50
2022-11-05T22:29:36.721Z,6.40
2022-11-05T22:32:04.529Z,6.50
2022-11-05T22:34:31.514Z,6.50
2022-11-05T22:36:58.811Z,6.40
2022-11-05T22:39:25.821Z,6.20
2022-11-05T22:41:57.126Z,6.20
2022-11-05T22:44:24.966Z,6.00
2022-11-05T22:46:52.309Z,6.20
2022-11-05T22:49:19.208Z,6.30
2022-11-05T22:51:46.292Z,6.30
2022-11-05T22:54:13.097Z,6.50
2022-11-05T22:56:42.398Z,6.30
2022-11-05T22:59:14.034Z,6.20
2022-11-05T23:01:42.331Z,6.20
2022-11-05T23:04:11.244Z,6.10
2022-11-05T23:06:57.032Z,6.10
2022-11-05T23:09:51.638Z,6.10
2022-11-05T23:12:20.212Z,6.00
2022-11-05T23:14:47.042Z,5.80
2022-11-05T23:17:32.438Z,5.70
2022-11-05T23:20:18.029Z,5.80
2022-11-05T23:23:03.500Z,5.70
2022-11-05T23:25:30.348Z,5.80
2022-11-05T23:27:57.222Z,5.70
2022-11-05T23:30:26.255Z,5.60
2022-11-05T23:32:55.343Z,5.80
2022-11-05T23:35:42.230Z,5.90
2022-11-05T23:38:27.644Z,5.80
2022-11-05T23:41:13.082Z,5.60
2022-11-05T23:43:58.355Z,5.50
2022-11-05T23:46:43.787Z,5.50
2022-11-05T23:49:10.576Z,5.40
2022-11-05T23:51:37.333Z,5.30
2022-11-05T23:54:04.261Z,5.30
2022-11-05T23:56:31.748Z,5.30
2022-11-05T23:58:58.607Z,5.30
